Hidden Valley, Valles Caldera, New Mexico Weather observations

Data are for 10 minute period ending at time listed.
 Day   Time   Solar   Ave.   Ave.  Ave.  Vector  Max.   Baro.   Total    
  of    of     Rad.   Air    Rel.  Wind   Wind   Wind  Press.  Precip.   
Year   Day            Temp.  Hum.  Speed  Dir.   Gust                    
2026   (MST)  Kw/m2    F      %     mph   deg.    mph    mb.     in.     
-------------------------------------------------------------------------
 244   17:30   -8190.00   65.2    -2    0.5   250     1.2     0.0    0.01 
 244   17:40   -8190.00   65.9    -1    0.0   190     0.4     0.0    0.01 
 244   17:50   -8190.00   66.1    -1    0.6   113     2.0     0.0    0.01 
 244   18:00   -8190.00   63.8    -2    1.0   271     1.7     0.0    0.01 
 244   18:10   -8190.00   63.3    -2    0.2    73     1.0     0.0    0.01 
 244   18:20   -8190.00   61.3    -3    0.4   316     1.0     0.0    0.01 
 244   18:30   -8190.00   60.2    -3    0.3   235     1.0     0.0    0.01 
 244   18:40   -8190.00   58.5    -3    0.3   202     1.3     0.0    0.01 
 244   18:50   -8190.00   58.4    -2    0.5   238     1.3     0.0    0.01 
 244   19:00   -8190.00   57.0    -2    0.0     0     0.0     0.0    0.01 
 244   19:10   4.83   54.4    -1    0.6   323     1.3     0.0    0.01 
 244   19:20   4.59   52.4     6    0.4    44     1.5     0.0    0.01 
 244   19:30   4.28   50.7    10    0.3    96     0.9     0.0    0.01 
 244   19:40   4.55   50.9    12    0.2    98     0.7     0.0    0.01 
 244   19:50   4.26   51.0    12    0.0    98     0.4     0.0    0.01 
 244   20:00   3.61   50.5    13    0.0    98     0.4     0.0    0.01 
 244   20:10   3.59   50.6    13    0.0     0     0.0     0.0    0.01 
 244   20:20   3.55   50.9    12    0.1    46     0.6     0.0    0.01 
 244   20:30   3.34   51.2    11    0.0    46     0.4     0.0    0.01 
 244   20:40   3.23   51.2    11    0.0     0     0.0     0.0    0.01 
 244   20:50   3.50   51.4    12    0.5   190     2.3     0.0    0.01 
 244   21:00   4.23   52.5    12    0.9   340     2.1     0.0    0.01 
 244   21:10   2.94   50.5    10    0.2    22     0.7     0.0    0.01 
 244   21:20   2.93   49.8    12    0.2    21     0.6     0.0    0.01 
 244   21:30   2.85   49.3    13    0.0     0     0.0     0.0    0.01 
 244   21:40   2.94   49.4    12    0.0    21     0.3     0.0    0.01 
 244   21:50   3.83   49.8    12    0.0     0     0.0     0.0    0.01 
 244   22:00   3.17   49.9    12    0.1     9     0.5     0.0    0.01 
 244   22:10   2.94   49.9    11    0.0     0     0.0     0.0    0.01 
 244   22:20   2.60   49.6    12    0.1    42     0.4     0.0    0.01 
 244   22:30   2.78   50.0    12    0.4   120     1.0     0.0    0.01 
 244   22:40   2.62   49.8    12    0.0    97     0.3     0.0    0.01 
 244   22:50   2.80   48.6    13    0.4    67     0.7     0.0    0.01 
 244   23:00   2.80   48.0    14    0.2    65     0.7     0.0    0.01 
 244   23:10   2.68   47.2    16    0.0     0     0.0     0.0    0.01 
 244   23:20   2.28   46.9    17    0.1    68     0.9     0.0    0.01 
 244   23:30   2.26   44.6    18    0.5    66     1.2     0.0    0.01 
 244   23:40   2.33   43.3    18    0.0    70     0.6     0.0    0.01 
 244   23:50   2.35   42.9    19    0.0     0     0.0     0.0    0.01 
 245    0:00   2.41   43.2    19    0.0     0     0.0     0.0    0.01 
 245    0:10   2.36   41.5    19    0.8    15     1.6     0.0    0.01 
 245    0:20   2.48   40.6    19    0.1    22     0.6     0.0    0.01 
 245    0:30   2.49   40.5    19    0.1     2     0.5     0.0    0.01 
 245    0:40   2.46   41.8    20    0.2     2     0.7     0.0    0.01 
 245    0:50   2.53   41.7    20    0.5   131     1.3     0.0    0.01 
 245    1:00   2.50   42.0    19    0.1   136     0.6     0.0    0.01 
 245    1:10   2.50   40.6    19    0.1   133     0.7     0.0    0.01 
 245    1:20   2.43   41.3    19    0.2   136     0.5     0.0    0.01 
 245    1:30   2.45   41.1    19    0.0     0     0.0     0.0    0.01 
 245    1:40   2.48   40.2    20    0.0     0     0.0     0.0    0.01 
 245    1:50   2.45   39.3    20    0.1   113     0.8     0.0    0.01 
 245    2:00   2.41   39.9    20    0.5   111     1.2     0.0    0.01 
 245    2:10   2.43   39.7    20    0.0     0     0.0     0.0    0.01 
 245    2:20   2.47   39.9    20    0.1   112     0.4     0.0    0.01 
 245    2:30   2.37   39.2    21    0.1   111     0.5     0.0    0.01 
 245    2:40   2.40   38.6    21    0.0     0     0.0     0.0    0.01 
 245    2:50   2.35   38.7    21    0.1   133     0.8     0.0    0.01 
 245    3:00   2.33   39.0    20    0.0     0     0.0     0.0    0.01 
 245    3:10   2.15   38.0    20    0.2    36     1.0     0.0    0.01 
 245    3:20   2.28   37.4    21    0.5    47     1.2     0.0    0.01 
 245    3:30   2.29   37.0    21    0.0    62     0.3     0.0    0.01 
 245    3:40   2.38   37.8    21    0.2    47     0.7     0.0    0.01 
 245    3:50   2.33   36.1    21    0.0    49     0.3     0.0    0.01 
 245    4:00   2.31   36.2    20    0.1    47     0.7     0.0    0.01 
 245    4:10   2.39   35.6    21    0.0     0     0.0     0.0    0.01 
 245    4:20   2.49   35.7    21    0.0     0     0.0     0.0    0.01 
 245    4:30   2.33   35.2    21    0.0     0     0.0     0.0    0.01 
 245    4:40   2.56   35.3    21    0.0     0     0.0     0.0    0.01 
 245    4:50   2.35   35.5    21    0.0     0     0.0     0.0    0.01 
 245    5:00   2.44   35.1    21    0.0     0     0.0     0.0    0.01 
 245    5:10   2.52   34.5    21    0.0     0     0.0     0.0    0.01 
 245    5:20   2.31   34.5    21    0.0     0     0.0     0.0    0.01 
 245    5:30   2.27   34.1    21    0.0     0     0.0     0.0    0.01 
 245    5:40   2.53   33.6    21    0.1    48     0.6     0.0    0.01 
 245    5:50   2.59   32.9    21    0.5    50     1.3     0.0    0.01 
 245    6:00   2.52   32.5    21    0.3    92     1.2     0.0    0.01 
 245    6:10   2.94   33.7    22    0.0   207     0.3     0.0    0.01 
 245    6:20   3.04   35.0    21    0.0     0     0.0     0.0    0.01 
 245    6:30   4.42   36.9    20    0.0   207     0.6     0.0    0.01 
 245    6:40   4.68   38.1    20    0.1   206     0.5     0.0    0.01 
 245    6:50   -8190.00   39.6    18    0.2   224     0.7     0.0    0.01 
 245    7:00   -8190.00   42.6    20    0.0     0     0.0     0.0    0.01 
 245    7:10   -8190.00   44.5    22    0.0   293     0.4     0.0    0.01 
 245    7:20   -8190.00   46.7    22    0.3    44     1.0     0.0    0.01 
 245    7:30   -8190.00   47.9    21    0.9    23     1.8     0.0    0.01 
 245    7:40   -8190.00   49.1    22    0.6    54     1.8     0.0    0.01 
 245    7:50   -8190.00   51.6    22    0.3   108     1.2     0.0    0.01 
 245    8:00   -8190.00   53.8    23    0.1   200     0.7     0.0    0.01 
 245    8:10   -8190.00   56.4    21    0.1   128     0.6     0.0    0.01 
 245    8:20   -8190.00   60.8    20    0.2   107     0.7     0.0    0.01 
 245    8:30   -8190.00   62.2    19    1.1    71     1.9     0.0    0.01 
 245    8:40   -8190.00   63.3    19    0.9    65     2.3     0.0    0.01 
 245    8:50   -8190.00   65.4    19    1.1   113     3.5     0.0    0.01 
 245    9:00   -8190.00   64.8    19    2.1   201     6.3     0.0    0.01 
 245    9:10   -8190.00   65.7    17    2.6   287     6.3     0.0    0.01 
 245    9:20   -8190.00   66.1    16    2.1   231     5.1     0.0    0.01 
 245    9:30   -8190.00   67.2    15    2.0   268     4.5     0.0    0.01 
 245    9:40   -8190.00   67.4    13    2.2   244     4.6     0.0    0.01 
 245    9:50   -8190.00   66.1    10    2.2   210     3.5     0.0    0.01 
 245   10:00   -8190.00   67.4     9    1.9   276     4.6     0.0    0.01 
 245   10:10   -8190.00   67.6     8    1.3   253     3.6     0.0    0.01 
 245   10:20   -8190.00   68.3     6    2.0   184     6.0     0.0    0.01 
 245   10:30   -8190.00   68.0     5    3.3   200     6.9     0.0    0.01 
 245   10:40   -8190.00   68.0     3    2.1   166     5.1     0.0    0.01 
 245   10:50   -8190.00   68.5     2    2.6   243     5.5     0.0    0.01 
 245   11:00   -8190.00   69.0     2    1.7   229     6.0     0.0    0.01 
 245   11:10   -8190.00   68.0    -0    2.6   229     4.8     0.0    0.01 
 245   11:20   -8190.00   68.5    -0    3.2   198     6.7     0.0    0.01 
 245   11:30   -8190.00   68.2    -1    4.1   214     7.8     0.0    0.01 
 245   11:40   -8190.00   67.7    -1    2.7   211     5.9     0.0    0.01 
 245   11:50   -8190.00   68.5    -1    3.0   217     6.7     0.0    0.01 
 245   12:00   -8190.00   69.7     0    4.5   201     8.6     0.0    0.01 
 245   12:10   -8190.00   69.0    -1    3.8   203     7.5     0.0    0.01 
 245   12:20   -8190.00   69.1    -1    3.9   192     7.8     0.0    0.01 
 245   12:30   -8190.00   69.3    -1    4.1   203     8.7     0.0    0.01 
 245   12:40   -8190.00   70.4    -0    4.6   179     8.7     0.0    0.01 
 245   12:50   -8190.00   70.5    -0    5.4   182    10.4     0.0    0.01 
 245   13:00   -8190.00   70.3    -1    5.0   215     9.8     0.0    0.01 
 245   13:10   -8190.00   68.8    -2    3.1   212     8.3     0.0    0.01 
 245   13:20   -8190.00   70.6    -1    2.2   271     6.1     0.0    0.01 
 245   13:30   -8190.00   72.2     0    2.3   296     6.2     0.0    0.01 
 245   13:40   -8190.00   72.2     0    2.5   234     6.6     0.0    0.01 
 245   13:50   -8190.00   70.9    -2    2.8   221    10.8     0.0    0.01 
 245   14:00   -8190.00   71.8    -1    2.5   230     8.0     0.0    0.01 
 245   14:10   -8190.00   71.9    -1    4.0   223     9.2     0.0    0.01 
 245   14:20   -8190.00   71.9    -1    4.5   216     9.5     0.0    0.01 
 245   14:30   -8190.00   70.9    -2    3.8   210     8.3     0.0    0.01 
 245   14:40   -8190.00   69.7    -2    3.5   217     6.8     0.0    0.01 
 245   14:50   -8190.00   71.2    -1    3.7   199     9.1     0.0    0.01 
 245   15:00   -8190.00   71.9    -0    3.6   195     6.6     0.0    0.01 
 245   15:10   -8190.00   71.5    -1    2.4   246     5.9     0.0    0.01 
 245   15:20   -8190.00   71.3    -1    2.0   218     5.4     0.0    0.01 
 245   15:30   -8190.00   71.7    -1    2.5   257     4.7     0.0    0.01 
 245   15:40   -8190.00   71.6    -1    2.2   218     5.7     0.0    0.01 
 245   15:50   -8190.00   72.6    -1    1.8   181     6.7     0.0    0.01 
 245   16:00   -8190.00   71.9    -1    4.1   215     9.3     0.0    0.01 
 245   16:10   -8190.00   70.5    -2    2.7   224     6.1     0.0    0.01 
 245   16:20   -8190.00   73.1    -0    1.8   266     4.6     0.0    0.01 
 245   16:30   -8190.00   72.0    -1    2.7   260     6.5     0.0    0.01 
 245   16:40   -8190.00   72.5    -1    2.1   229     5.7     0.0    0.01 
 245   16:50   -8190.00   71.9    -2    2.5   243     5.6     0.0    0.01 
 245   17:00   -8190.00   71.3    -2    1.6   226     4.3     0.0    0.01 
 245   17:10   -8190.00   71.6    -2    1.8   205     4.0     0.0    0.01 
 245   17:20   -8190.00   72.0    -1    1.9   246     6.9     0.0    0.01 

Return to Hidden Valley, Valles Caldera graphs page.


Western Regional Climate Center,wrcc@dri.edu